createdAt,value
2023-01-03T00:01:17.897Z,3.19
2023-01-03T00:03:44.398Z,3.19
2023-01-03T00:06:19.799Z,3.19
2023-01-03T00:08:47.029Z,3.17
2023-01-03T00:11:43.482Z,3.21
2023-01-03T00:14:12.532Z,3.32
2023-01-03T00:16:39.622Z,3.24
2023-01-03T00:19:14.790Z,3.22
2023-01-03T00:21:42.845Z,3.20
2023-01-03T00:24:10.365Z,3.17
2023-01-03T00:26:37.685Z,3.18
2023-01-03T00:29:04.634Z,3.20
2023-01-03T00:31:31.199Z,3.14
2023-01-03T00:33:57.745Z,3.13
2023-01-03T00:36:24.600Z,3.17
2023-01-03T00:38:51.350Z,3.16
2023-01-03T00:41:19.285Z,3.16
2023-01-03T00:43:48.135Z,3.13
2023-01-03T00:46:16.492Z,3.15
2023-01-03T00:48:43.398Z,3.12
2023-01-03T00:51:12.483Z,3.10
2023-01-03T00:53:40.403Z,3.09
2023-01-03T00:56:09.820Z,3.10
2023-01-03T00:58:36.927Z,3.03
2023-01-03T01:01:11.002Z,3.04
2023-01-03T01:03:40.320Z,2.97
2023-01-03T01:06:13.424Z,2.93
2023-01-03T01:08:40.126Z,2.92
2023-01-03T01:11:06.663Z,2.91
2023-01-03T01:13:34.221Z,2.80
2023-01-03T01:16:13.048Z,2.79
2023-01-03T01:18:41.140Z,2.75
2023-01-03T01:21:10.820Z,2.83
2023-01-03T01:23:38.910Z,2.79
2023-01-03T01:26:06.878Z,2.80
2023-01-03T01:28:35.169Z,2.84
2023-01-03T01:31:02.983Z,2.85
2023-01-03T01:33:32.321Z,2.85
2023-01-03T01:35:59.561Z,2.91
2023-01-03T01:38:26.045Z,2.87
2023-01-03T01:40:52.506Z,2.84
2023-01-03T01:43:40.938Z,2.77
2023-01-03T01:46:32.834Z,2.74
2023-01-03T01:49:03.212Z,2.67
2023-01-03T01:51:32.143Z,2.60
2023-01-03T01:54:02.267Z,2.63
2023-01-03T01:56:34.578Z,2.53
2023-01-03T01:59:01.362Z,2.39
2023-01-03T02:01:28.593Z,2.38
2023-01-03T02:04:03.796Z,2.34
2023-01-03T02:06:32.277Z,2.38
2023-01-03T02:08:59.012Z,2.39
2023-01-03T02:11:40.133Z,2.32
2023-01-03T02:14:28.486Z,2.31
2023-01-03T02:17:04.210Z,2.31
2023-01-03T02:19:54.125Z,2.31
2023-01-03T02:22:55.276Z,2.34
2023-01-03T02:26:17.139Z,2.39
2023-01-03T02:29:18.301Z,2.37
2023-01-03T02:32:07.188Z,2.36
2023-01-03T02:35:03.102Z,2.37
2023-01-03T02:37:40.591Z,2.37
2023-01-03T02:40:23.504Z,2.36
2023-01-03T02:43:05.719Z,2.33
2023-01-03T02:45:48.590Z,2.33
2023-01-03T02:48:37.953Z,2.29
2023-01-03T02:51:12.875Z,2.27
2023-01-03T02:53:44.016Z,2.28
2023-01-03T02:56:17.696Z,2.23
2023-01-03T02:58:47.766Z,2.28
2023-01-03T03:01:16.912Z,2.32
2023-01-03T03:03:44.900Z,2.23
2023-01-03T03:06:20.080Z,2.27
2023-01-03T03:08:47.816Z,2.23
2023-01-03T03:11:33.962Z,2.23
2023-01-03T03:14:08.135Z,2.20
2023-01-03T03:16:50.430Z,2.24
2023-01-03T03:19:44.836Z,2.20
2023-01-03T03:22:48.921Z,2.18
2023-01-03T03:25:44.492Z,2.10
2023-01-03T03:28:34.274Z,2.07
2023-01-03T03:31:03.547Z,2.11
2023-01-03T03:33:33.865Z,2.07
2023-01-03T03:36:04.968Z,2.12
2023-01-03T03:38:38.203Z,2.07
2023-01-03T03:41:35.620Z,2.13
2023-01-03T03:44:37.987Z,2.12
2023-01-03T03:47:40.068Z,2.05
2023-01-03T03:50:22.176Z,2.10
2023-01-03T03:52:52.514Z,2.10
2023-01-03T03:55:26.225Z,2.10
2023-01-03T03:57:59.257Z,2.08
2023-01-03T04:00:31.569Z,2.10
2023-01-03T04:03:01.804Z,2.01
2023-01-03T04:05:34.305Z,2.02
2023-01-03T04:08:00.861Z,1.99
2023-01-03T04:10:30.193Z,1.95
2023-01-03T04:13:00.642Z,1.82
2023-01-03T04:15:27.131Z,1.90
2023-01-03T04:17:53.566Z,1.89
2023-01-03T04:20:20.224Z,1.87
2023-01-03T04:22:46.691Z,1.90
2023-01-03T04:25:13.184Z,1.87
2023-01-03T04:27:39.670Z,1.84
2023-01-03T04:30:07.079Z,1.85
2023-01-03T04:32:33.642Z,1.86
2023-01-03T04:35:00.173Z,1.86
2023-01-03T04:37:26.644Z,1.95
2023-01-03T04:39:53.225Z,1.93
2023-01-03T04:42:38.407Z,1.94
2023-01-03T04:45:05.983Z,1.90
2023-01-03T04:47:32.487Z,1.97
2023-01-03T04:50:01.672Z,1.90
2023-01-03T04:52:29.576Z,1.92
2023-01-03T04:54:56.133Z,1.94
2023-01-03T04:57:22.619Z,1.97
2023-01-03T04:59:49.103Z,1.97
2023-01-03T05:02:15.804Z,1.97
2023-01-03T05:04:42.561Z,1.97
2023-01-03T05:07:09.121Z,1.92
2023-01-03T05:09:35.642Z,1.96
2023-01-03T05:12:02.147Z,1.95
2023-01-03T05:14:28.591Z,2.02
2023-01-03T05:16:55.251Z,2.01
2023-01-03T05:19:21.735Z,2.04
2023-01-03T05:22:06.863Z,2.19
2023-01-03T05:24:56.523Z,2.17
2023-01-03T05:27:23.604Z,2.21
2023-01-03T05:29:52.509Z,2.31
2023-01-03T05:32:19.177Z,2.33
2023-01-03T05:34:45.717Z,2.38
2023-01-03T05:37:12.277Z,2.44
2023-01-03T05:39:38.769Z,2.58
2023-01-03T05:42:05.798Z,2.60
2023-01-03T05:44:33.852Z,2.65
2023-01-03T05:47:02.121Z,2.68
2023-01-03T05:49:28.613Z,2.66
2023-01-03T05:51:55.130Z,2.77
2023-01-03T05:54:21.727Z,2.82
2023-01-03T05:56:48.441Z,2.79
2023-01-03T05:59:15.941Z,2.88
2023-01-03T06:01:42.495Z,2.98
2023-01-03T06:04:09.082Z,2.90
2023-01-03T06:06:35.633Z,2.98
2023-01-03T06:09:02.233Z,3.01
2023-01-03T06:11:28.672Z,3.00
2023-01-03T06:13:55.148Z,2.98
2023-01-03T06:16:40.764Z,3.03
2023-01-03T06:19:08.144Z,3.01
2023-01-03T06:21:35.409Z,3.03
2023-01-03T06:24:02.252Z,3.09
2023-01-03T06:26:28.773Z,3.05
2023-01-03T06:28:55.510Z,3.11
2023-01-03T06:31:22.069Z,3.13
2023-01-03T06:33:48.774Z,3.17
2023-01-03T06:36:18.151Z,3.13
2023-01-03T06:38:45.064Z,3.22
2023-01-03T06:41:13.186Z,3.19
2023-01-03T06:43:39.934Z,3.24
2023-01-03T06:46:25.046Z,3.21
2023-01-03T06:49:10.439Z,3.22
2023-01-03T06:51:55.293Z,3.25
2023-01-03T06:54:31.267Z,3.19
2023-01-03T06:56:58.077Z,3.26
2023-01-03T06:59:24.640Z,3.23
2023-01-03T07:01:52.749Z,3.25
2023-01-03T07:04:20.856Z,3.30
2023-01-03T07:06:47.793Z,3.27
2023-01-03T07:09:14.773Z,3.35
2023-01-03T07:11:42.113Z,3.29
2023-01-03T07:14:10.575Z,3.30
2023-01-03T07:16:40.404Z,3.35
2023-01-03T07:19:10.765Z,3.35
2023-01-03T07:21:37.390Z,3.37
2023-01-03T07:24:06.305Z,3.40
2023-01-03T07:26:34.000Z,3.46
2023-01-03T07:29:02.209Z,3.52
2023-01-03T07:31:29.158Z,3.50
2023-01-03T07:33:55.831Z,3.53
2023-01-03T07:36:22.326Z,3.52
2023-01-03T07:38:49.433Z,3.62
2023-01-03T07:41:16.892Z,3.75
2023-01-03T07:43:46.560Z,3.83
2023-01-03T07:46:14.989Z,3.77
2023-01-03T07:48:42.815Z,3.78
2023-01-03T07:51:11.787Z,3.78
2023-01-03T07:53:39.423Z,3.77
2023-01-03T07:56:12.639Z,3.81
2023-01-03T07:58:41.333Z,3.85
2023-01-03T08:01:14.438Z,3.91
2023-01-03T08:03:41.904Z,3.95
2023-01-03T08:06:11.529Z,3.99
2023-01-03T08:08:38.451Z,4.01
2023-01-03T08:11:24.214Z,4.05
2023-01-03T08:13:51.492Z,4.12
2023-01-03T08:16:19.139Z,4.11
2023-01-03T08:18:46.136Z,4.19
2023-01-03T08:21:15.185Z,4.19
2023-01-03T08:23:42.414Z,4.20
2023-01-03T08:26:14.375Z,4.21
2023-01-03T08:28:42.373Z,4.30
2023-01-03T08:31:11.031Z,4.35
2023-01-03T08:34:00.917Z,4.37
2023-01-03T08:36:31.430Z,4.45
2023-01-03T08:39:04.526Z,4.52
2023-01-03T08:41:34.979Z,4.54
2023-01-03T08:44:03.740Z,4.51
2023-01-03T08:46:33.199Z,4.68
2023-01-03T08:49:00.439Z,4.69
2023-01-03T08:51:28.798Z,4.74
2023-01-03T08:53:55.792Z,4.86
2023-01-03T08:56:22.224Z,4.86
2023-01-03T08:58:48.757Z,4.92
2023-01-03T09:01:15.287Z,4.92
2023-01-03T09:03:42.113Z,4.91
2023-01-03T09:06:08.689Z,4.84
2023-01-03T09:08:35.765Z,5.00
2023-01-03T09:11:06.485Z,5.02
2023-01-03T09:13:33.733Z,5.05
2023-01-03T09:16:02.442Z,5.06
2023-01-03T09:18:29.039Z,5.10
2023-01-03T09:20:55.613Z,5.18
2023-01-03T09:23:22.253Z,5.19
2023-01-03T09:25:48.899Z,5.23
2023-01-03T09:28:15.343Z,5.28
2023-01-03T09:30:41.852Z,5.21
2023-01-03T09:33:10.570Z,5.32
2023-01-03T09:35:37.883Z,5.33
2023-01-03T09:38:04.903Z,5.36
2023-01-03T09:40:36.957Z,5.38
2023-01-03T09:43:17.398Z,5.33
2023-01-03T09:45:55.194Z,5.36
2023-01-03T09:48:37.730Z,5.41
2023-01-03T09:51:30.223Z,5.51
2023-01-03T09:54:16.660Z,5.51
2023-01-03T09:57:01.747Z,5.52
2023-01-03T09:59:55.382Z,5.53
2023-01-03T10:02:52.742Z,5.66
2023-01-03T10:05:22.206Z,5.68
2023-01-03T10:08:07.524Z,5.73
2023-01-03T10:10:41.329Z,5.71
2023-01-03T10:13:27.627Z,5.78
2023-01-03T10:16:11.383Z,5.84
2023-01-03T10:19:15.831Z,5.85
2023-01-03T10:21:59.095Z,5.91
2023-01-03T10:24:30.357Z,5.96
2023-01-03T10:27:27.780Z,6.06
2023-01-03T10:29:58.102Z,5.97
2023-01-03T10:33:13.783Z,6.02
2023-01-03T10:35:40.248Z,6.11
2023-01-03T10:38:06.726Z,6.12
2023-01-03T10:40:48.377Z,6.11
2023-01-03T10:43:19.780Z,6.15
2023-01-03T10:45:54.870Z,6.15
2023-01-03T10:48:22.066Z,6.23
2023-01-03T10:50:50.812Z,6.29
2023-01-03T10:53:21.937Z,6.28
2023-01-03T10:55:52.130Z,6.31
2023-01-03T10:58:30.614Z,6.36
2023-01-03T11:01:30.255Z,6.41
2023-01-03T11:04:16.127Z,6.42
2023-01-03T11:07:13.103Z,6.51
2023-01-03T11:09:56.890Z,6.57
2023-01-03T11:12:35.219Z,6.59
2023-01-03T11:15:15.748Z,6.60
2023-01-03T11:17:54.094Z,6.60
2023-01-03T11:20:55.995Z,6.52
2023-01-03T11:23:44.255Z,6.65
2023-01-03T11:26:29.487Z,6.67
2023-01-03T11:29:03.269Z,6.64
2023-01-03T11:31:55.008Z,6.67
2023-01-03T11:35:22.329Z,6.69
2023-01-03T11:37:59.690Z,6.76
2023-01-03T11:40:48.032Z,6.81
2023-01-03T11:43:36.060Z,6.88
2023-01-03T11:46:24.099Z,6.88
2023-01-03T11:49:04.076Z,6.91
2023-01-03T11:51:57.620Z,6.93
2023-01-03T11:54:53.184Z,7.03
2023-01-03T11:57:40.391Z,7.03
2023-01-03T12:00:12.721Z,7.03
2023-01-03T12:03:02.187Z,7.05
2023-01-03T12:05:43.360Z,7.02
2023-01-03T12:08:13.011Z,7.10
2023-01-03T12:11:04.031Z,7.13
2023-01-03T12:13:38.870Z,7.05
2023-01-03T12:16:20.873Z,7.12
2023-01-03T12:18:51.492Z,7.17
2023-01-03T12:21:26.069Z,7.17
2023-01-03T12:24:02.652Z,7.23
2023-01-03T12:26:30.497Z,7.09
2023-01-03T12:29:20.771Z,7.19
2023-01-03T12:31:53.986Z,7.20
2023-01-03T12:34:37.693Z,7.37
2023-01-03T12:37:18.627Z,7.35
2023-01-03T12:39:56.770Z,7.39
2023-01-03T12:42:29.505Z,7.37
2023-01-03T12:45:09.577Z,7.37
2023-01-03T12:47:54.587Z,7.40
2023-01-03T12:50:40.347Z,7.42
2023-01-03T12:53:16.235Z,7.32
2023-01-03T12:55:49.320Z,7.47
2023-01-03T12:58:22.017Z,7.55
2023-01-03T13:01:15.484Z,7.49
2023-01-03T13:03:49.343Z,7.54
2023-01-03T13:06:37.312Z,7.58
2023-01-03T13:09:12.124Z,7.64
2023-01-03T13:11:55.753Z,7.57
2023-01-03T13:14:25.271Z,7.61
2023-01-03T13:16:59.149Z,7.63
2023-01-03T13:19:28.588Z,7.60
2023-01-03T13:21:55.014Z,7.64
2023-01-03T13:24:45.056Z,7.62
2023-01-03T13:27:23.065Z,7.59
2023-01-03T13:29:49.721Z,7.60
2023-01-03T13:32:23.754Z,7.56
2023-01-03T13:34:56.238Z,7.66
2023-01-03T13:37:29.471Z,7.71
2023-01-03T13:40:02.467Z,7.69
2023-01-03T13:42:39.873Z,7.74
2023-01-03T13:45:15.515Z,7.78
2023-01-03T13:47:45.557Z,7.74
2023-01-03T13:50:34.288Z,7.76
2023-01-03T13:53:06.356Z,7.83
2023-01-03T13:55:41.035Z,7.88
2023-01-03T13:58:30.344Z,7.92
2023-01-03T14:01:05.778Z,7.88
2023-01-03T14:03:51.264Z,7.91
2023-01-03T14:06:53.208Z,7.92
2023-01-03T14:09:25.789Z,7.89
2023-01-03T14:12:22.510Z,7.87
2023-01-03T14:14:56.946Z,7.84
2023-01-03T14:17:29.497Z,7.83
2023-01-03T14:20:02.542Z,7.85
2023-01-03T14:22:48.437Z,7.79
2023-01-03T14:25:34.294Z,7.83
2023-01-03T14:28:04.855Z,7.80
2023-01-03T14:30:34.663Z,7.78
2023-01-03T14:33:02.896Z,7.77
2023-01-03T14:35:34.587Z,7.76
2023-01-03T14:38:06.529Z,7.72
2023-01-03T14:40:34.125Z,7.70
2023-01-03T14:43:04.307Z,7.71
2023-01-03T14:45:31.358Z,7.64
2023-01-03T14:47:58.256Z,7.75
2023-01-03T14:50:28.573Z,7.68
2023-01-03T14:52:59.833Z,7.69
2023-01-03T14:55:30.111Z,7.67
2023-01-03T14:58:04.122Z,7.68
2023-01-03T15:00:35.120Z,7.69
2023-01-03T15:03:03.506Z,7.70
2023-01-03T15:05:36.034Z,7.63
2023-01-03T15:08:12.909Z,7.64
2023-01-03T15:10:49.800Z,7.62
2023-01-03T15:13:26.408Z,7.62
2023-01-03T15:15:59.216Z,7.56
2023-01-03T15:18:30.916Z,7.59
2023-01-03T15:20:59.820Z,7.56
2023-01-03T15:23:44.528Z,7.58
2023-01-03T15:26:36.502Z,7.55
2023-01-03T15:29:15.506Z,7.56
2023-01-03T15:31:59.595Z,7.61
2023-01-03T15:34:31.026Z,7.49
2023-01-03T15:37:00.235Z,7.48
2023-01-03T15:39:43.352Z,7.54
2023-01-03T15:42:51.909Z,7.47
2023-01-03T15:45:27.658Z,7.42
2023-01-03T15:48:00.519Z,7.43
2023-01-03T15:50:48.793Z,7.45
2023-01-03T15:53:31.086Z,7.52
2023-01-03T15:56:04.437Z,7.48
2023-01-03T15:58:32.608Z,7.48
2023-01-03T16:01:03.945Z,7.48
2023-01-03T16:03:33.097Z,7.54
2023-01-03T16:06:00.141Z,7.56
2023-01-03T16:08:37.751Z,7.48
2023-01-03T16:11:10.227Z,7.54
2023-01-03T16:13:44.143Z,7.49
2023-01-03T16:16:11.400Z,7.57
2023-01-03T16:18:43.275Z,7.58
2023-01-03T16:21:10.486Z,7.51
2023-01-03T16:23:37.274Z,7.54
2023-01-03T16:26:04.420Z,7.52
2023-01-03T16:28:31.228Z,7.56
2023-01-03T16:31:00.798Z,7.55
2023-01-03T16:33:32.586Z,7.61
2023-01-03T16:36:00.226Z,7.67
2023-01-03T16:38:28.518Z,7.63
2023-01-03T16:40:56.577Z,7.61
2023-01-03T16:43:27.219Z,7.59
2023-01-03T16:45:58.066Z,7.59
2023-01-03T16:48:48.925Z,7.62
2023-01-03T16:51:20.859Z,7.61
2023-01-03T16:53:48.276Z,7.54
2023-01-03T16:56:15.266Z,7.55
2023-01-03T16:58:42.455Z,7.56
2023-01-03T17:01:09.117Z,7.59
2023-01-03T17:03:41.715Z,7.52
2023-01-03T17:06:38.102Z,7.55
2023-01-03T17:09:14.043Z,7.56
2023-01-03T17:11:41.377Z,7.59
2023-01-03T17:14:14.164Z,7.60
2023-01-03T17:16:41.014Z,7.51
2023-01-03T17:19:52.209Z,7.49
2023-01-03T17:22:04.106Z,7.51
2023-01-03T17:24:31.175Z,7.49
2023-01-03T17:27:16.203Z,7.50
2023-01-03T17:29:43.275Z,7.50
2023-01-03T17:32:21.007Z,7.54
2023-01-03T17:34:47.993Z,7.48
2023-01-03T17:37:18.360Z,7.55
2023-01-03T17:40:11.030Z,7.62
2023-01-03T17:42:39.456Z,7.58
2023-01-03T17:45:24.717Z,7.64
2023-01-03T17:48:10.428Z,7.62
2023-01-03T17:50:37.316Z,7.61
2023-01-03T17:53:04.468Z,7.59
2023-01-03T17:58:35.656Z,7.62
2023-01-03T18:01:08.375Z,7.56
2023-01-03T18:03:36.569Z,7.58
2023-01-03T18:06:12.948Z,7.73
2023-01-03T18:08:40.627Z,7.65
2023-01-03T18:11:08.352Z,7.66
2023-01-03T18:13:37.694Z,7.67
2023-01-03T18:16:05.147Z,7.67
2023-01-03T18:18:32.533Z,7.63
2023-01-03T18:20:59.667Z,7.64
2023-01-03T18:23:31.097Z,7.72
2023-01-03T18:26:01.508Z,7.71
2023-01-03T18:28:28.602Z,7.76
2023-01-03T18:30:56.344Z,7.76
2023-01-03T18:33:24.703Z,7.78
2023-01-03T18:35:52.809Z,7.78
2023-01-03T18:38:33.111Z,7.77
2023-01-03T18:41:05.028Z,7.86
2023-01-03T18:43:33.053Z,7.84
2023-01-03T18:45:59.947Z,7.79
2023-01-03T18:48:26.881Z,7.87
2023-01-03T18:50:59.055Z,7.87
2023-01-03T18:53:31.040Z,7.89
2023-01-03T18:55:58.107Z,7.90
2023-01-03T18:58:39.872Z,7.91
2023-01-03T19:01:07.146Z,7.91
2023-01-03T19:03:35.734Z,7.92
2023-01-03T19:06:11.997Z,7.90
2023-01-03T19:08:38.743Z,7.88
2023-01-03T19:11:12.940Z,7.93
2023-01-03T19:13:54.997Z,7.95
2023-01-03T19:16:24.985Z,7.88
2023-01-03T19:18:52.692Z,7.89
2023-01-03T19:21:21.902Z,7.97
2023-01-03T19:24:08.266Z,7.89
2023-01-03T19:26:38.809Z,7.93
2023-01-03T19:29:11.600Z,7.88
2023-01-03T19:31:43.340Z,7.88
2023-01-03T19:34:18.400Z,7.84
2023-01-03T19:36:45.877Z,7.83
2023-01-03T19:39:13.659Z,7.81
2023-01-03T19:42:05.985Z,7.81
2023-01-03T19:44:33.928Z,7.84
2023-01-03T19:47:01.483Z,7.86
2023-01-03T19:49:28.928Z,7.85
2023-01-03T19:51:58.038Z,7.85
2023-01-03T19:54:25.338Z,7.87
2023-01-03T19:56:56.723Z,7.86
2023-01-03T19:59:27.500Z,7.88
2023-01-03T20:02:24.206Z,7.92
2023-01-03T20:04:42.759Z,7.93
2023-01-03T20:07:14.167Z,7.93
2023-01-03T20:09:40.968Z,7.89
2023-01-03T20:12:14.192Z,7.95
2023-01-03T20:14:41.605Z,7.92
2023-01-03T20:17:34.083Z,7.98
2023-01-03T20:20:00.616Z,7.99
2023-01-03T20:25:24.537Z,7.94
2023-01-03T20:27:52.351Z,8.03
2023-01-03T20:30:20.606Z,8.01
2023-01-03T20:32:50.924Z,7.99
2023-01-03T20:36:08.267Z,7.92
2023-01-03T20:38:06.593Z,7.97
2023-01-03T20:40:33.380Z,8.00
2023-01-03T20:43:04.829Z,7.96
2023-01-03T20:45:32.291Z,7.94
2023-01-03T20:47:59.482Z,7.84
2023-01-03T20:50:28.822Z,8.04
2023-01-03T20:52:55.790Z,7.99
2023-01-03T20:55:27.030Z,8.00
2023-01-03T20:57:54.290Z,7.94
2023-01-03T21:00:34.217Z,7.98
2023-01-03T21:03:01.174Z,7.91
2023-01-03T21:05:27.988Z,7.98
2023-01-03T21:08:13.259Z,8.00
2023-01-03T21:10:43.056Z,8.01
2023-01-03T21:13:11.240Z,8.03
2023-01-03T21:15:38.548Z,8.00
2023-01-03T21:18:06.188Z,8.02
2023-01-03T21:20:33.576Z,8.05
2023-01-03T21:23:00.238Z,8.02
2023-01-03T21:25:30.060Z,8.07
2023-01-03T21:27:56.949Z,8.10
2023-01-03T21:30:24.725Z,8.11
2023-01-03T21:32:51.752Z,8.04
2023-01-03T21:35:21.005Z,8.14
2023-01-03T21:37:48.488Z,8.05
2023-01-03T21:40:18.911Z,8.12
2023-01-03T21:43:05.599Z,8.17
2023-01-03T21:45:32.495Z,8.22
2023-01-03T21:48:00.151Z,8.23
2023-01-03T21:50:27.467Z,8.22
2023-01-03T21:52:54.241Z,8.29
2023-01-03T21:55:24.077Z,8.25
2023-01-03T21:57:50.929Z,8.27
2023-01-03T22:00:18.699Z,8.27
2023-01-03T22:03:05.158Z,8.32
2023-01-03T22:05:32.176Z,8.39
2023-01-03T22:08:03.250Z,8.43
2023-01-03T22:10:30.463Z,8.43
2023-01-03T22:13:03.665Z,8.44
2023-01-03T22:15:30.684Z,8.40
2023-01-03T22:17:57.232Z,8.50
2023-01-03T22:20:26.381Z,8.52
2023-01-03T22:22:53.725Z,8.50
2023-01-03T22:25:23.283Z,8.54
2023-01-03T22:27:50.095Z,8.56
2023-01-03T22:30:19.247Z,8.60
2023-01-03T22:32:46.953Z,8.62
2023-01-03T22:35:15.236Z,8.61
2023-01-03T22:37:47.773Z,8.61
2023-01-03T22:40:18.554Z,8.65
2023-01-03T22:42:45.045Z,8.65
2023-01-03T22:45:11.628Z,8.66
2023-01-03T22:47:44.254Z,8.75
2023-01-03T22:50:14.162Z,8.70
2023-01-03T22:52:40.671Z,8.71
2023-01-03T22:55:08.267Z,8.67
2023-01-03T22:57:34.894Z,8.63
2023-01-03T23:00:02.389Z,8.57
2023-01-03T23:02:33.250Z,8.52
2023-01-03T23:05:03.935Z,8.60
2023-01-03T23:07:30.516Z,8.59
2023-01-03T23:09:57.589Z,8.60
2023-01-03T23:12:42.758Z,8.53
2023-01-03T23:15:09.567Z,8.43
2023-01-03T23:17:54.735Z,8.43
2023-01-03T23:20:21.207Z,8.44
2023-01-03T23:22:47.693Z,8.30
2023-01-03T23:25:14.295Z,8.33
2023-01-03T23:27:40.759Z,8.33
2023-01-03T23:30:17.016Z,8.37
2023-01-03T23:32:43.494Z,8.37
2023-01-03T23:35:12.953Z,8.32
2023-01-03T23:37:40.162Z,8.27
2023-01-03T23:40:07.511Z,8.34
2023-01-03T23:42:33.955Z,8.32
2023-01-03T23:45:01.051Z,8.35
2023-01-03T23:47:30.479Z,8.33
2023-01-03T23:49:57.144Z,8.31
2023-01-03T23:52:23.773Z,8.32
2023-01-03T23:54:56.198Z,8.28
2023-01-03T23:57:35.658Z,8.33
